sensor_id;sensor_type;location;lat;lon;timestamp;P1;durP1;ratioP1;P2;durP2;ratioP2
67156;SDS011;54086;50.126;8.710;2023-06-22T00:00:41;9.67;;;5.40;;
67156;SDS011;54086;50.126;8.710;2023-06-22T00:03:07;9.38;;;5.50;;
67156;SDS011;54086;50.126;8.710;2023-06-22T00:05:33;11.03;;;5.70;;
67156;SDS011;54086;50.126;8.710;2023-06-22T00:08:01;10.00;;;5.77;;
67156;SDS011;54086;50.126;8.710;2023-06-22T00:10:28;10.27;;;6.18;;
67156;SDS011;54086;50.126;8.710;2023-06-22T00:12:53;14.33;;;5.90;;
67156;SDS011;54086;50.126;8.710;2023-06-22T00:15:18;10.03;;;5.70;;
67156;SDS011;54086;50.126;8.710;2023-06-22T00:17:45;11.17;;;5.77;;
67156;SDS011;54086;50.126;8.710;2023-06-22T00:20:10;10.50;;;6.00;;
67156;SDS011;54086;50.126;8.710;2023-06-22T00:22:36;9.83;;;5.67;;
67156;SDS011;54086;50.126;8.710;2023-06-22T00:25:05;9.27;;;5.88;;
67156;SDS011;54086;50.126;8.710;2023-06-22T00:27:34;9.25;;;5.60;;
67156;SDS011;54086;50.126;8.710;2023-06-22T00:30:00;10.80;;;5.72;;
67156;SDS011;54086;50.126;8.710;2023-06-22T00:32:26;10.73;;;5.17;;
67156;SDS011;54086;50.126;8.710;2023-06-22T00:34:51;10.67;;;5.77;;
67156;SDS011;54086;50.126;8.710;2023-06-22T00:37:17;13.15;;;6.30;;
67156;SDS011;54086;50.126;8.710;2023-06-22T00:39:44;9.13;;;5.27;;
67156;SDS011;54086;50.126;8.710;2023-06-22T00:42:09;10.50;;;5.78;;
67156;SDS011;54086;50.126;8.710;2023-06-22T00:44:35;9.80;;;5.82;;
67156;SDS011;54086;50.126;8.710;2023-06-22T00:47:01;9.97;;;5.60;;
67156;SDS011;54086;50.126;8.710;2023-06-22T00:49:28;10.55;;;5.88;;
67156;SDS011;54086;50.126;8.710;2023-06-22T00:51:54;9.10;;;5.63;;
67156;SDS011;54086;50.126;8.710;2023-06-22T00:54:20;9.70;;;5.73;;
67156;SDS011;54086;50.126;8.710;2023-06-22T00:56:55;9.18;;;5.50;;
67156;SDS011;54086;50.126;8.710;2023-06-22T00:59:23;8.57;;;5.45;;
67156;SDS011;54086;50.126;8.710;2023-06-22T01:01:48;11.18;;;5.93;;
67156;SDS011;54086;50.126;8.710;2023-06-22T01:04:14;10.80;;;5.22;;
67156;SDS011;54086;50.126;8.710;2023-06-22T01:06:50;9.63;;;5.80;;
67156;SDS011;54086;50.126;8.710;2023-06-22T01:09:27;9.52;;;5.28;;
67156;SDS011;54086;50.126;8.710;2023-06-22T01:11:59;9.07;;;5.55;;
67156;SDS011;54086;50.126;8.710;2023-06-22T01:14:35;10.57;;;5.70;;
67156;SDS011;54086;50.126;8.710;2023-06-22T01:17:12;9.38;;;5.35;;
67156;SDS011;54086;50.126;8.710;2023-06-22T01:19:45;10.68;;;5.78;;
67156;SDS011;54086;50.126;8.710;2023-06-22T01:22:15;11.50;;;6.03;;
67156;SDS011;54086;50.126;8.710;2023-06-22T01:24:55;10.35;;;5.60;;
67156;SDS011;54086;50.126;8.710;2023-06-22T01:27:47;11.90;;;6.03;;
67156;SDS011;54086;50.126;8.710;2023-06-22T01:30:21;11.68;;;5.88;;
67156;SDS011;54086;50.126;8.710;2023-06-22T01:32:50;11.00;;;6.15;;
67156;SDS011;54086;50.126;8.710;2023-06-22T01:35:16;11.73;;;6.50;;
67156;SDS011;54086;50.126;8.710;2023-06-22T01:37:43;11.13;;;6.78;;
67156;SDS011;54086;50.126;8.710;2023-06-22T01:40:09;10.43;;;6.60;;
67156;SDS011;54086;50.126;8.710;2023-06-22T01:42:35;11.43;;;6.90;;
67156;SDS011;54086;50.126;8.710;2023-06-22T01:45:02;10.88;;;7.03;;
67156;SDS011;54086;50.126;8.710;2023-06-22T01:47:28;10.57;;;6.65;;
67156;SDS011;54086;50.126;8.710;2023-06-22T01:49:54;11.53;;;6.83;;
67156;SDS011;54086;50.126;8.710;2023-06-22T01:52:20;11.90;;;6.97;;
67156;SDS011;54086;50.126;8.710;2023-06-22T01:54:46;11.65;;;6.78;;
67156;SDS011;54086;50.126;8.710;2023-06-22T01:57:12;12.90;;;6.85;;
67156;SDS011;54086;50.126;8.710;2023-06-22T01:59:39;10.83;;;7.00;;
67156;SDS011;54086;50.126;8.710;2023-06-22T02:02:22;11.63;;;7.60;;
67156;SDS011;54086;50.126;8.710;2023-06-22T02:07:29;11.32;;;7.28;;
67156;SDS011;54086;50.126;8.710;2023-06-22T02:09:57;12.37;;;6.93;;
67156;SDS011;54086;50.126;8.710;2023-06-22T02:12:25;11.13;;;7.10;;
67156;SDS011;54086;50.126;8.710;2023-06-22T02:14:52;10.68;;;7.03;;
67156;SDS011;54086;50.126;8.710;2023-06-22T02:17:18;11.35;;;7.28;;
67156;SDS011;54086;50.126;8.710;2023-06-22T02:19:44;12.57;;;7.63;;
67156;SDS011;54086;50.126;8.710;2023-06-22T02:22:09;11.75;;;7.32;;
67156;SDS011;54086;50.126;8.710;2023-06-22T02:24:35;11.27;;;6.77;;
67156;SDS011;54086;50.126;8.710;2023-06-22T02:27:01;12.03;;;7.73;;
67156;SDS011;54086;50.126;8.710;2023-06-22T02:29:27;12.05;;;7.00;;
67156;SDS011;54086;50.126;8.710;2023-06-22T02:31:53;11.27;;;6.75;;
67156;SDS011;54086;50.126;8.710;2023-06-22T02:34:19;10.70;;;7.37;;
67156;SDS011;54086;50.126;8.710;2023-06-22T02:36:45;11.00;;;7.10;;
67156;SDS011;54086;50.126;8.710;2023-06-22T02:39:17;11.83;;;7.47;;
67156;SDS011;54086;50.126;8.710;2023-06-22T02:41:44;11.50;;;7.10;;
67156;SDS011;54086;50.126;8.710;2023-06-22T02:44:09;11.77;;;7.80;;
67156;SDS011;54086;50.126;8.710;2023-06-22T02:46:35;12.23;;;7.70;;
67156;SDS011;54086;50.126;8.710;2023-06-22T02:49:01;12.05;;;7.80;;
67156;SDS011;54086;50.126;8.710;2023-06-22T02:51:26;12.93;;;8.03;;
67156;SDS011;54086;50.126;8.710;2023-06-22T02:53:52;12.80;;;8.10;;
67156;SDS011;54086;50.126;8.710;2023-06-22T02:56:21;11.05;;;7.32;;
67156;SDS011;54086;50.126;8.710;2023-06-22T02:58:49;12.45;;;7.90;;
67156;SDS011;54086;50.126;8.710;2023-06-22T03:01:15;12.40;;;7.07;;
67156;SDS011;54086;50.126;8.710;2023-06-22T03:03:41;11.40;;;7.05;;
67156;SDS011;54086;50.126;8.710;2023-06-22T03:06:06;11.60;;;7.23;;
67156;SDS011;54086;50.126;8.710;2023-06-22T03:08:31;13.80;;;7.93;;
67156;SDS011;54086;50.126;8.710;2023-06-22T03:10:57;11.13;;;7.37;;
67156;SDS011;54086;50.126;8.710;2023-06-22T03:13:22;12.10;;;7.90;;
67156;SDS011;54086;50.126;8.710;2023-06-22T03:15:48;11.07;;;7.13;;
67156;SDS011;54086;50.126;8.710;2023-06-22T03:18:13;13.25;;;7.85;;
67156;SDS011;54086;50.126;8.710;2023-06-22T03:20:40;11.53;;;7.57;;
67156;SDS011;54086;50.126;8.710;2023-06-22T03:23:06;12.88;;;7.72;;
67156;SDS011;54086;50.126;8.710;2023-06-22T03:25:31;11.97;;;7.67;;
67156;SDS011;54086;50.126;8.710;2023-06-22T03:27:58;12.85;;;7.88;;
67156;SDS011;54086;50.126;8.710;2023-06-22T03:30:24;11.43;;;7.27;;
67156;SDS011;54086;50.126;8.710;2023-06-22T03:32:49;13.55;;;8.32;;
67156;SDS011;54086;50.126;8.710;2023-06-22T03:35:14;11.53;;;7.43;;
67156;SDS011;54086;50.126;8.710;2023-06-22T03:37:40;12.93;;;7.67;;
67156;SDS011;54086;50.126;8.710;2023-06-22T03:40:06;14.50;;;7.88;;
67156;SDS011;54086;50.126;8.710;2023-06-22T03:42:35;14.40;;;8.52;;
67156;SDS011;54086;50.126;8.710;2023-06-22T03:45:01;11.67;;;8.00;;
67156;SDS011;54086;50.126;8.710;2023-06-22T03:47:28;12.63;;;7.32;;
67156;SDS011;54086;50.126;8.710;2023-06-22T03:49:53;14.47;;;8.30;;
67156;SDS011;54086;50.126;8.710;2023-06-22T03:52:20;13.45;;;8.02;;
67156;SDS011;54086;50.126;8.710;2023-06-22T03:54:47;13.75;;;8.68;;
67156;SDS011;54086;50.126;8.710;2023-06-22T03:57:12;13.57;;;7.97;;
67156;SDS011;54086;50.126;8.710;2023-06-22T03:59:37;13.70;;;8.15;;
67156;SDS011;54086;50.126;8.710;2023-06-22T04:02:03;12.73;;;7.87;;
67156;SDS011;54086;50.126;8.710;2023-06-22T04:04:29;12.63;;;8.23;;
67156;SDS011;54086;50.126;8.710;2023-06-22T04:06:54;13.00;;;8.10;;
67156;SDS011;54086;50.126;8.710;2023-06-22T04:09:20;12.13;;;7.60;;
67156;SDS011;54086;50.126;8.710;2023-06-22T04:11:46;14.43;;;8.50;;
67156;SDS011;54086;50.126;8.710;2023-06-22T04:14:12;12.40;;;8.27;;
67156;SDS011;54086;50.126;8.710;2023-06-22T04:16:37;12.02;;;8.02;;
67156;SDS011;54086;50.126;8.710;2023-06-22T04:19:03;15.30;;;9.10;;
67156;SDS011;54086;50.126;8.710;2023-06-22T04:21:28;13.90;;;8.80;;
67156;SDS011;54086;50.126;8.710;2023-06-22T04:23:54;13.30;;;8.50;;
67156;SDS011;54086;50.126;8.710;2023-06-22T04:26:19;15.43;;;9.33;;
67156;SDS011;54086;50.126;8.710;2023-06-22T04:28:46;12.13;;;8.25;;
67156;SDS011;54086;50.126;8.710;2023-06-22T04:31:16;16.23;;;8.68;;
67156;SDS011;54086;50.126;8.710;2023-06-22T04:33:43;13.93;;;8.52;;
67156;SDS011;54086;50.126;8.710;2023-06-22T04:36:08;13.03;;;8.60;;
67156;SDS011;54086;50.126;8.710;2023-06-22T04:38:34;14.90;;;9.10;;
67156;SDS011;54086;50.126;8.710;2023-06-22T04:40:59;13.13;;;8.53;;
67156;SDS011;54086;50.126;8.710;2023-06-22T04:43:28;13.23;;;8.50;;
67156;SDS011;54086;50.126;8.710;2023-06-22T04:45:56;14.30;;;9.02;;
67156;SDS011;54086;50.126;8.710;2023-06-22T04:48:28;13.07;;;8.60;;
67156;SDS011;54086;50.126;8.710;2023-06-22T04:50:57;11.90;;;8.93;;
67156;SDS011;54086;50.126;8.710;2023-06-22T04:53:30;12.82;;;8.63;;
67156;SDS011;54086;50.126;8.710;2023-06-22T04:55:56;13.50;;;9.07;;
67156;SDS011;54086;50.126;8.710;2023-06-22T04:58:21;14.70;;;8.50;;
67156;SDS011;54086;50.126;8.710;2023-06-22T05:00:47;12.37;;;8.10;;
67156;SDS011;54086;50.126;8.710;2023-06-22T05:03:12;15.32;;;8.90;;
67156;SDS011;54086;50.126;8.710;2023-06-22T05:05:38;14.80;;;8.80;;
67156;SDS011;54086;50.126;8.710;2023-06-22T05:08:04;13.27;;;8.63;;
67156;SDS011;54086;50.126;8.710;2023-06-22T05:10:32;13.82;;;8.80;;
67156;SDS011;54086;50.126;8.710;2023-06-22T05:12:58;12.20;;;8.45;;
67156;SDS011;54086;50.126;8.710;2023-06-22T05:15:23;15.20;;;8.50;;
67156;SDS011;54086;50.126;8.710;2023-06-22T05:17:53;15.80;;;8.38;;
67156;SDS011;54086;50.126;8.710;2023-06-22T05:20:18;12.87;;;8.80;;
67156;SDS011;54086;50.126;8.710;2023-06-22T05:22:44;12.95;;;8.60;;
67156;SDS011;54086;50.126;8.710;2023-06-22T05:25:10;14.93;;;8.40;;
67156;SDS011;54086;50.126;8.710;2023-06-22T05:27:36;13.82;;;8.95;;
67156;SDS011;54086;50.126;8.710;2023-06-22T05:30:07;14.27;;;8.95;;
67156;SDS011;54086;50.126;8.710;2023-06-22T05:32:33;17.03;;;8.77;;
67156;SDS011;54086;50.126;8.710;2023-06-22T05:34:59;15.82;;;8.68;;
67156;SDS011;54086;50.126;8.710;2023-06-22T05:37:25;12.47;;;7.70;;
67156;SDS011;54086;50.126;8.710;2023-06-22T05:39:51;16.63;;;9.55;;
67156;SDS011;54086;50.126;8.710;2023-06-22T05:42:16;13.40;;;9.15;;
67156;SDS011;54086;50.126;8.710;2023-06-22T05:44:42;15.13;;;9.33;;
67156;SDS011;54086;50.126;8.710;2023-06-22T05:47:07;14.93;;;9.23;;
67156;SDS011;54086;50.126;8.710;2023-06-22T05:49:33;15.33;;;8.20;;
67156;SDS011;54086;50.126;8.710;2023-06-22T05:51:58;12.77;;;7.90;;
67156;SDS011;54086;50.126;8.710;2023-06-22T05:54:25;13.05;;;8.10;;
67156;SDS011;54086;50.126;8.710;2023-06-22T05:56:50;12.63;;;7.97;;
67156;SDS011;54086;50.126;8.710;2023-06-22T05:59:16;13.13;;;8.48;;
67156;SDS011;54086;50.126;8.710;2023-06-22T06:01:42;13.80;;;9.13;;
67156;SDS011;54086;50.126;8.710;2023-06-22T06:04:08;15.83;;;9.17;;
67156;SDS011;54086;50.126;8.710;2023-06-22T06:06:33;13.27;;;8.27;;
67156;SDS011;54086;50.126;8.710;2023-06-22T06:08:59;15.05;;;9.15;;
67156;SDS011;54086;50.126;8.710;2023-06-22T06:11:25;14.35;;;8.95;;
67156;SDS011;54086;50.126;8.710;2023-06-22T06:13:51;14.07;;;8.70;;
67156;SDS011;54086;50.126;8.710;2023-06-22T06:16:17;16.23;;;9.63;;
67156;SDS011;54086;50.126;8.710;2023-06-22T06:18:45;14.23;;;9.10;;
67156;SDS011;54086;50.126;8.710;2023-06-22T06:21:11;15.60;;;8.55;;
67156;SDS011;54086;50.126;8.710;2023-06-22T06:23:36;13.70;;;8.60;;
67156;SDS011;54086;50.126;8.710;2023-06-22T06:26:02;13.75;;;8.43;;
67156;SDS011;54086;50.126;8.710;2023-06-22T06:28:30;18.10;;;8.73;;
67156;SDS011;54086;50.126;8.710;2023-06-22T06:30:56;12.97;;;8.70;;
67156;SDS011;54086;50.126;8.710;2023-06-22T06:33:24;15.20;;;9.10;;
67156;SDS011;54086;50.126;8.710;2023-06-22T06:35:53;13.82;;;8.43;;
67156;SDS011;54086;50.126;8.710;2023-06-22T06:38:21;15.18;;;8.68;;
67156;SDS011;54086;50.126;8.710;2023-06-22T06:40:48;14.20;;;8.57;;
67156;SDS011;54086;50.126;8.710;2023-06-22T06:43:16;13.52;;;8.63;;
67156;SDS011;54086;50.126;8.710;2023-06-22T06:45:43;16.63;;;9.83;;
67156;SDS011;54086;50.126;8.710;2023-06-22T06:48:11;16.30;;;9.27;;
67156;SDS011;54086;50.126;8.710;2023-06-22T06:53:08;14.27;;;8.82;;
67156;SDS011;54086;50.126;8.710;2023-06-22T06:55:34;13.37;;;8.50;;
67156;SDS011;54086;50.126;8.710;2023-06-22T06:57:59;14.10;;;8.70;;
67156;SDS011;54086;50.126;8.710;2023-06-22T07:00:26;12.87;;;8.00;;
67156;SDS011;54086;50.126;8.710;2023-06-22T07:02:52;13.27;;;8.63;;
67156;SDS011;54086;50.126;8.710;2023-06-22T07:05:17;13.27;;;8.32;;
67156;SDS011;54086;50.126;8.710;2023-06-22T07:07:43;13.63;;;9.20;;
67156;SDS011;54086;50.126;8.710;2023-06-22T07:10:10;13.07;;;8.40;;
67156;SDS011;54086;50.126;8.710;2023-06-22T07:12:36;11.80;;;8.48;;
67156;SDS011;54086;50.126;8.710;2023-06-22T07:15:03;14.87;;;9.03;;
67156;SDS011;54086;50.126;8.710;2023-06-22T07:17:30;18.65;;;9.10;;
67156;SDS011;54086;50.126;8.710;2023-06-22T07:19:55;11.53;;;8.40;;
67156;SDS011;54086;50.126;8.710;2023-06-22T07:22:21;14.02;;;9.18;;
67156;SDS011;54086;50.126;8.710;2023-06-22T07:24:46;13.13;;;8.90;;
67156;SDS011;54086;50.126;8.710;2023-06-22T07:27:11;15.37;;;9.17;;
67156;SDS011;54086;50.126;8.710;2023-06-22T07:29:37;14.30;;;8.90;;
67156;SDS011;54086;50.126;8.710;2023-06-22T07:32:05;18.10;;;9.25;;
67156;SDS011;54086;50.126;8.710;2023-06-22T07:34:31;13.82;;;8.57;;
67156;SDS011;54086;50.126;8.710;2023-06-22T07:36:56;14.57;;;8.70;;
67156;SDS011;54086;50.126;8.710;2023-06-22T07:39:22;11.97;;;8.87;;
67156;SDS011;54086;50.126;8.710;2023-06-22T07:41:50;14.63;;;9.13;;
67156;SDS011;54086;50.126;8.710;2023-06-22T07:44:16;13.63;;;9.15;;
67156;SDS011;54086;50.126;8.710;2023-06-22T07:46:42;13.80;;;8.80;;
67156;SDS011;54086;50.126;8.710;2023-06-22T07:49:07;13.17;;;8.70;;
67156;SDS011;54086;50.126;8.710;2023-06-22T07:51:35;13.67;;;9.03;;
67156;SDS011;54086;50.126;8.710;2023-06-22T07:54:01;13.52;;;8.93;;
67156;SDS011;54086;50.126;8.710;2023-06-22T07:56:26;15.53;;;10.13;;
67156;SDS011;54086;50.126;8.710;2023-06-22T07:58:55;14.30;;;8.88;;
67156;SDS011;54086;50.126;8.710;2023-06-22T08:01:23;13.73;;;9.07;;
67156;SDS011;54086;50.126;8.710;2023-06-22T08:03:49;13.37;;;9.17;;
67156;SDS011;54086;50.126;8.710;2023-06-22T08:06:14;13.57;;;8.95;;
67156;SDS011;54086;50.126;8.710;2023-06-22T08:08:40;13.55;;;8.65;;
67156;SDS011;54086;50.126;8.710;2023-06-22T08:11:07;12.50;;;8.77;;
67156;SDS011;54086;50.126;8.710;2023-06-22T08:13:33;12.32;;;8.70;;
67156;SDS011;54086;50.126;8.710;2023-06-22T08:16:00;14.13;;;8.88;;
67156;SDS011;54086;50.126;8.710;2023-06-22T08:18:26;15.17;;;9.17;;
67156;SDS011;54086;50.126;8.710;2023-06-22T08:20:53;12.02;;;9.13;;
67156;SDS011;54086;50.126;8.710;2023-06-22T08:23:19;14.20;;;9.00;;
67156;SDS011;54086;50.126;8.710;2023-06-22T08:25:44;11.60;;;8.27;;
67156;SDS011;54086;50.126;8.710;2023-06-22T08:28:10;15.47;;;9.10;;
67156;SDS011;54086;50.126;8.710;2023-06-22T08:30:38;13.60;;;9.00;;
67156;SDS011;54086;50.126;8.710;2023-06-22T08:33:03;13.32;;;9.10;;
67156;SDS011;54086;50.126;8.710;2023-06-22T08:35:29;13.43;;;8.77;;
67156;SDS011;54086;50.126;8.710;2023-06-22T08:37:55;13.57;;;8.85;;
67156;SDS011;54086;50.126;8.710;2023-06-22T08:40:22;16.07;;;9.37;;
67156;SDS011;54086;50.126;8.710;2023-06-22T08:42:48;14.55;;;9.73;;
67156;SDS011;54086;50.126;8.710;2023-06-22T08:45:14;12.95;;;9.30;;
67156;SDS011;54086;50.126;8.710;2023-06-22T08:47:40;13.63;;;8.93;;
67156;SDS011;54086;50.126;8.710;2023-06-22T08:50:07;13.05;;;8.70;;
67156;SDS011;54086;50.126;8.710;2023-06-22T08:52:33;14.20;;;9.03;;
67156;SDS011;54086;50.126;8.710;2023-06-22T08:54:59;12.63;;;8.17;;
67156;SDS011;54086;50.126;8.710;2023-06-22T08:57:24;13.80;;;10.13;;
67156;SDS011;54086;50.126;8.710;2023-06-22T08:59:50;13.80;;;9.10;;
67156;SDS011;54086;50.126;8.710;2023-06-22T09:02:17;12.23;;;8.85;;
67156;SDS011;54086;50.126;8.710;2023-06-22T09:04:43;13.25;;;8.65;;
67156;SDS011;54086;50.126;8.710;2023-06-22T09:07:08;11.30;;;8.80;;
67156;SDS011;54086;50.126;8.710;2023-06-22T09:09:33;12.33;;;9.50;;
67156;SDS011;54086;50.126;8.710;2023-06-22T09:11:59;14.40;;;9.33;;
67156;SDS011;54086;50.126;8.710;2023-06-22T09:14:24;12.10;;;8.70;;
67156;SDS011;54086;50.126;8.710;2023-06-22T09:16:49;14.60;;;8.97;;
67156;SDS011;54086;50.126;8.710;2023-06-22T09:19:15;12.77;;;9.10;;
67156;SDS011;54086;50.126;8.710;2023-06-22T09:21:40;13.13;;;9.30;;
67156;SDS011;54086;50.126;8.710;2023-06-22T09:24:06;13.10;;;8.80;;
67156;SDS011;54086;50.126;8.710;2023-06-22T09:26:32;13.80;;;9.32;;
67156;SDS011;54086;50.126;8.710;2023-06-22T09:28:57;12.27;;;9.07;;
67156;SDS011;54086;50.126;8.710;2023-06-22T09:31:23;14.17;;;8.83;;
67156;SDS011;54086;50.126;8.710;2023-06-22T09:33:52;13.48;;;9.82;;
67156;SDS011;54086;50.126;8.710;2023-06-22T09:36:20;14.45;;;9.20;;
67156;SDS011;54086;50.126;8.710;2023-06-22T09:38:48;13.43;;;9.00;;
67156;SDS011;54086;50.126;8.710;2023-06-22T09:41:14;13.25;;;9.02;;
67156;SDS011;54086;50.126;8.710;2023-06-22T09:43:41;13.83;;;8.50;;
67156;SDS011;54086;50.126;8.710;2023-06-22T09:46:06;12.67;;;8.70;;
67156;SDS011;54086;50.126;8.710;2023-06-22T09:48:32;13.60;;;8.77;;
67156;SDS011;54086;50.126;8.710;2023-06-22T09:50:57;12.43;;;8.82;;
67156;SDS011;54086;50.126;8.710;2023-06-22T09:53:23;11.00;;;8.03;;
67156;SDS011;54086;50.126;8.710;2023-06-22T09:55:48;14.17;;;9.67;;
67156;SDS011;54086;50.126;8.710;2023-06-22T09:58:13;13.30;;;9.60;;
67156;SDS011;54086;50.126;8.710;2023-06-22T10:00:39;11.70;;;7.20;;
67156;SDS011;54086;50.126;8.710;2023-06-22T10:03:06;10.40;;;7.05;;
67156;SDS011;54086;50.126;8.710;2023-06-22T10:05:32;11.47;;;6.70;;
67156;SDS011;54086;50.126;8.710;2023-06-22T10:07:57;10.57;;;6.93;;
67156;SDS011;54086;50.126;8.710;2023-06-22T10:10:22;11.48;;;6.65;;
67156;SDS011;54086;50.126;8.710;2023-06-22T10:12:55;11.03;;;7.37;;
67156;SDS011;54086;50.126;8.710;2023-06-22T10:15:21;10.20;;;6.90;;
67156;SDS011;54086;50.126;8.710;2023-06-22T10:17:47;12.07;;;7.17;;
67156;SDS011;54086;50.126;8.710;2023-06-22T10:20:13;12.97;;;7.10;;
67156;SDS011;54086;50.126;8.710;2023-06-22T10:22:42;9.97;;;7.23;;
67156;SDS011;54086;50.126;8.710;2023-06-22T10:25:09;12.93;;;7.38;;
67156;SDS011;54086;50.126;8.710;2023-06-22T10:27:36;13.60;;;8.45;;
67156;SDS011;54086;50.126;8.710;2023-06-22T10:30:04;11.00;;;7.20;;
67156;SDS011;54086;50.126;8.710;2023-06-22T10:32:34;12.50;;;7.68;;
67156;SDS011;54086;50.126;8.710;2023-06-22T10:34:59;10.53;;;7.40;;
67156;SDS011;54086;50.126;8.710;2023-06-22T10:37:25;11.02;;;7.07;;
67156;SDS011;54086;50.126;8.710;2023-06-22T10:39:50;12.43;;;7.10;;
67156;SDS011;54086;50.126;8.710;2023-06-22T10:42:15;10.40;;;7.07;;
67156;SDS011;54086;50.126;8.710;2023-06-22T10:44:41;21.37;;;9.07;;
67156;SDS011;54086;50.126;8.710;2023-06-22T10:47:09;11.65;;;7.15;;
67156;SDS011;54086;50.126;8.710;2023-06-22T10:49:34;10.70;;;6.50;;
67156;SDS011;54086;50.126;8.710;2023-06-22T10:52:01;10.93;;;6.57;;
67156;SDS011;54086;50.126;8.710;2023-06-22T10:54:26;10.90;;;5.97;;
67156;SDS011;54086;50.126;8.710;2023-06-22T10:56:52;10.87;;;6.87;;
67156;SDS011;54086;50.126;8.710;2023-06-22T10:59:17;12.00;;;6.70;;
67156;SDS011;54086;50.126;8.710;2023-06-22T11:01:42;10.73;;;6.47;;
67156;SDS011;54086;50.126;8.710;2023-06-22T11:04:08;10.45;;;6.97;;
67156;SDS011;54086;50.126;8.710;2023-06-22T11:06:33;11.20;;;6.70;;
67156;SDS011;54086;50.126;8.710;2023-06-22T11:08:59;12.77;;;6.77;;
67156;SDS011;54086;50.126;8.710;2023-06-22T11:11:25;13.47;;;7.07;;
67156;SDS011;54086;50.126;8.710;2023-06-22T11:13:50;13.95;;;8.10;;
67156;SDS011;54086;50.126;8.710;2023-06-22T11:16:17;9.98;;;7.10;;
67156;SDS011;54086;50.126;8.710;2023-06-22T11:18:43;12.03;;;7.10;;
67156;SDS011;54086;50.126;8.710;2023-06-22T11:21:08;10.05;;;6.78;;
67156;SDS011;54086;50.126;8.710;2023-06-22T11:23:33;10.43;;;7.00;;
67156;SDS011;54086;50.126;8.710;2023-06-22T11:25:59;10.33;;;6.93;;
67156;SDS011;54086;50.126;8.710;2023-06-22T11:28:29;11.45;;;7.05;;
67156;SDS011;54086;50.126;8.710;2023-06-22T11:31:01;10.95;;;7.10;;
67156;SDS011;54086;50.126;8.710;2023-06-22T11:33:29;11.43;;;7.22;;
67156;SDS011;54086;50.126;8.710;2023-06-22T11:35:56;14.55;;;7.60;;
67156;SDS011;54086;50.126;8.710;2023-06-22T11:38:23;10.90;;;7.13;;
67156;SDS011;54086;50.126;8.710;2023-06-22T11:40:52;12.40;;;7.30;;
67156;SDS011;54086;50.126;8.710;2023-06-22T11:43:22;11.57;;;7.33;;
67156;SDS011;54086;50.126;8.710;2023-06-22T11:45:49;10.60;;;7.35;;
67156;SDS011;54086;50.126;8.710;2023-06-22T11:48:18;10.40;;;7.22;;
67156;SDS011;54086;50.126;8.710;2023-06-22T11:50:46;11.63;;;7.22;;
67156;SDS011;54086;50.126;8.710;2023-06-22T11:53:15;10.98;;;7.13;;
67156;SDS011;54086;50.126;8.710;2023-06-22T11:55:44;12.27;;;7.50;;
67156;SDS011;54086;50.126;8.710;2023-06-22T11:58:13;12.30;;;7.10;;
67156;SDS011;54086;50.126;8.710;2023-06-22T12:00:44;12.48;;;7.78;;
67156;SDS011;54086;50.126;8.710;2023-06-22T12:03:12;14.32;;;7.80;;
67156;SDS011;54086;50.126;8.710;2023-06-22T12:05:41;12.87;;;7.93;;
67156;SDS011;54086;50.126;8.710;2023-06-22T12:08:08;12.67;;;7.73;;
67156;SDS011;54086;50.126;8.710;2023-06-22T12:10:40;11.73;;;7.70;;
67156;SDS011;54086;50.126;8.710;2023-06-22T12:13:08;11.60;;;8.27;;
67156;SDS011;54086;50.126;8.710;2023-06-22T12:15:36;12.00;;;8.00;;
67156;SDS011;54086;50.126;8.710;2023-06-22T12:18:04;12.18;;;7.75;;
67156;SDS011;54086;50.126;8.710;2023-06-22T12:20:31;11.15;;;7.78;;
67156;SDS011;54086;50.126;8.710;2023-06-22T12:22:57;13.32;;;8.93;;
67156;SDS011;54086;50.126;8.710;2023-06-22T12:25:24;12.18;;;8.18;;
67156;SDS011;54086;50.126;8.710;2023-06-22T12:27:51;13.98;;;8.23;;
67156;SDS011;54086;50.126;8.710;2023-06-22T12:30:20;12.27;;;7.50;;
67156;SDS011;54086;50.126;8.710;2023-06-22T12:32:51;15.10;;;8.50;;
67156;SDS011;54086;50.126;8.710;2023-06-22T12:35:19;12.48;;;8.15;;
67156;SDS011;54086;50.126;8.710;2023-06-22T12:37:48;13.38;;;7.80;;
67156;SDS011;54086;50.126;8.710;2023-06-22T12:40:17;11.88;;;8.20;;
67156;SDS011;54086;50.126;8.710;2023-06-22T12:42:45;11.00;;;7.88;;
67156;SDS011;54086;50.126;8.710;2023-06-22T12:45:13;12.75;;;7.47;;
67156;SDS011;54086;50.126;8.710;2023-06-22T12:47:41;11.30;;;8.18;;
67156;SDS011;54086;50.126;8.710;2023-06-22T12:50:10;13.25;;;7.25;;
67156;SDS011;54086;50.126;8.710;2023-06-22T12:52:39;14.60;;;7.70;;
67156;SDS011;54086;50.126;8.710;2023-06-22T12:55:06;11.77;;;7.90;;
67156;SDS011;54086;50.126;8.710;2023-06-22T12:57:33;15.17;;;8.47;;
67156;SDS011;54086;50.126;8.710;2023-06-22T13:00:00;10.57;;;7.25;;
67156;SDS011;54086;50.126;8.710;2023-06-22T13:02:27;16.65;;;8.10;;
67156;SDS011;54086;50.126;8.710;2023-06-22T13:04:56;13.25;;;8.30;;
67156;SDS011;54086;50.126;8.710;2023-06-22T13:07:24;13.02;;;7.43;;
67156;SDS011;54086;50.126;8.710;2023-06-22T13:09:53;14.25;;;7.95;;
67156;SDS011;54086;50.126;8.710;2023-06-22T13:12:20;12.10;;;7.80;;
67156;SDS011;54086;50.126;8.710;2023-06-22T13:14:47;13.50;;;7.22;;
67156;SDS011;54086;50.126;8.710;2023-06-22T13:17:16;14.27;;;8.00;;
67156;SDS011;54086;50.126;8.710;2023-06-22T13:19:44;13.17;;;7.53;;
67156;SDS011;54086;50.126;8.710;2023-06-22T13:22:31;12.73;;;7.23;;
67156;SDS011;54086;50.126;8.710;2023-06-22T13:24:55;11.98;;;7.63;;
67156;SDS011;54086;50.126;8.710;2023-06-22T13:27:21;14.18;;;7.78;;
67156;SDS011;54086;50.126;8.710;2023-06-22T13:29:47;13.10;;;8.00;;
67156;SDS011;54086;50.126;8.710;2023-06-22T13:32:12;12.00;;;7.10;;
67156;SDS011;54086;50.126;8.710;2023-06-22T13:34:38;13.07;;;8.05;;
67156;SDS011;54086;50.126;8.710;2023-06-22T13:37:03;12.27;;;7.33;;
67156;SDS011;54086;50.126;8.710;2023-06-22T13:39:29;11.63;;;7.50;;
67156;SDS011;54086;50.126;8.710;2023-06-22T13:41:54;12.97;;;7.60;;
67156;SDS011;54086;50.126;8.710;2023-06-22T13:44:20;13.23;;;8.10;;
67156;SDS011;54086;50.126;8.710;2023-06-22T13:46:47;14.40;;;8.00;;
67156;SDS011;54086;50.126;8.710;2023-06-22T13:49:14;13.52;;;8.45;;
67156;SDS011;54086;50.126;8.710;2023-06-22T13:51:42;13.63;;;8.70;;
67156;SDS011;54086;50.126;8.710;2023-06-22T13:54:09;14.55;;;7.88;;
67156;SDS011;54086;50.126;8.710;2023-06-22T13:56:36;11.60;;;8.10;;
67156;SDS011;54086;50.126;8.710;2023-06-22T13:59:03;14.27;;;8.27;;
67156;SDS011;54086;50.126;8.710;2023-06-22T14:01:30;15.05;;;8.35;;
67156;SDS011;54086;50.126;8.710;2023-06-22T14:03:57;13.43;;;8.00;;
67156;SDS011;54086;50.126;8.710;2023-06-22T14:06:24;12.20;;;7.88;;
67156;SDS011;54086;50.126;8.710;2023-06-22T14:08:52;11.93;;;7.72;;
67156;SDS011;54086;50.126;8.710;2023-06-22T14:11:19;15.77;;;7.90;;
67156;SDS011;54086;50.126;8.710;2023-06-22T14:13:47;12.75;;;7.90;;
67156;SDS011;54086;50.126;8.710;2023-06-22T14:16:13;11.25;;;7.45;;
67156;SDS011;54086;50.126;8.710;2023-06-22T14:18:40;14.35;;;8.43;;
67156;SDS011;54086;50.126;8.710;2023-06-22T14:21:07;12.67;;;7.53;;
67156;SDS011;54086;50.126;8.710;2023-06-22T14:23:35;13.23;;;8.03;;
67156;SDS011;54086;50.126;8.710;2023-06-22T14:26:04;13.63;;;8.95;;
67156;SDS011;54086;50.126;8.710;2023-06-22T14:28:31;12.38;;;7.70;;
67156;SDS011;54086;50.126;8.710;2023-06-22T14:30:58;12.63;;;7.53;;
67156;SDS011;54086;50.126;8.710;2023-06-22T14:33:25;16.23;;;7.45;;
67156;SDS011;54086;50.126;8.710;2023-06-22T14:35:51;13.55;;;7.32;;
67156;SDS011;54086;50.126;8.710;2023-06-22T14:38:19;13.52;;;7.03;;